Time;durP1;ratioP1;P1;durP2;ratioP2;P2;SDS_P1;SDS_P2;PMS_P1;PMS_P2;Temp;Humidity;BMP_temperature;BMP_pressure;BME280_temperature;BME280_humidity;BME280_pressure;Samples;Min_cycle;Max_cycle;Signal;HPM_P1;HPM_P2
2022/02/28 00:00:57;;;;;;;10.83;6.93;;;6.40;50.80;;;;;;5075420;28;20025;-79
2022/02/28 00:03:23;;;;;;;11.07;6.70;;;6.40;51.30;;;;;;5074906;28;20063;-69
2022/02/28 00:05:49;;;;;;;10.33;6.30;;;6.50;51.00;;;;;;5075066;28;20020;-68
2022/02/28 00:08:14;;;;;;;10.10;6.10;;;6.50;50.40;;;;;;5074970;28;20030;-69
2022/02/28 00:10:41;;;;;;;11.50;6.27;;;6.50;50.90;;;;;;5075034;28;20029;-68
2022/02/28 00:13:06;;;;;;;11.03;6.07;;;6.40;50.90;;;;;;5074773;28;20027;-69
2022/02/28 00:15:32;;;;;;;10.87;6.43;;;6.40;50.30;;;;;;5075044;28;20037;-68
2022/02/28 00:17:58;;;;;;;10.63;6.47;;;6.40;50.30;;;;;;5074376;28;20086;-68
2022/02/28 00:20:24;;;;;;;9.97;6.33;;;6.40;50.60;;;;;;5074687;28;20017;-69
2022/02/28 00:22:51;;;;;;;11.80;6.50;;;6.40;50.50;;;;;;5074588;28;20465;-68
2022/02/28 00:25:17;;;;;;;11.77;6.90;;;6.40;50.40;;;;;;5074824;28;20025;-68
2022/02/28 00:27:44;;;;;;;14.40;7.03;;;6.50;50.60;;;;;;5074572;28;20480;-68
2022/02/28 00:30:10;;;;;;;12.40;6.53;;;6.50;50.40;;;;;;5074661;28;20374;-70
2022/02/28 00:32:36;;;;;;;12.57;6.53;;;6.40;52.00;;;;;;5074482;28;20025;-79
2022/02/28 00:35:03;;;;;;;12.37;6.00;;;6.40;51.90;;;;;;5074251;28;20044;-68
2022/02/28 00:37:29;;;;;;;10.87;6.37;;;6.40;51.60;;;;;;5074097;28;20056;-69
2022/02/28 00:39:54;;;;;;;13.27;6.30;;;6.40;51.50;;;;;;5074492;28;20056;-78
2022/02/28 00:42:20;;;;;;;10.00;6.10;;;6.40;51.00;;;;;;5074442;28;20468;-77
2022/02/28 00:44:46;;;;;;;10.97;6.30;;;6.40;51.10;;;;;;5074493;28;20033;-68
2022/02/28 00:47:12;;;;;;;12.47;6.50;;;6.40;51.60;;;;;;5073961;28;20107;-68
2022/02/28 00:49:37;;;;;;;9.47;6.23;;;6.40;51.30;;;;;;5074391;28;20021;-68
2022/02/28 00:52:03;;;;;;;10.60;6.63;;;6.40;51.10;;;;;;5074001;28;20028;-68
2022/02/28 00:54:29;;;;;;;10.93;6.50;;;6.40;50.70;;;;;;5073865;28;20025;-69
2022/02/28 00:56:56;;;;;;;9.97;6.87;;;6.50;50.50;;;;;;5073869;28;20032;-69
2022/02/28 00:59:21;;;;;;;10.50;6.70;;;6.40;50.80;;;;;;5073806;28;20443;-69
2022/02/28 01:01:47;;;;;;;9.97;6.23;;;6.40;50.50;;;;;;5073869;28;20029;-68
2022/02/28 01:04:13;;;;;;;12.80;6.97;;;6.40;51.40;;;;;;5073703;28;20051;-68
2022/02/28 01:06:39;;;;;;;9.40;6.17;;;6.30;51.60;;;;;;5073707;28;20021;-79
2022/02/28 01:09:06;;;;;;;9.77;6.37;;;6.30;52.00;;;;;;5073790;28;20454;-78
2022/02/28 01:11:32;;;;;;;11.50;6.27;;;6.30;51.00;;;;;;5073419;28;20396;-69
2022/02/28 01:13:58;;;;;;;11.90;6.70;;;6.20;51.20;;;;;;5073733;28;20027;-68
2022/02/28 01:16:24;;;;;;;11.37;6.40;;;6.30;51.70;;;;;;5073773;28;20396;-69
2022/02/28 01:18:50;;;;;;;11.10;6.77;;;6.20;51.20;;;;;;5073572;28;20043;-69
2022/02/28 01:21:16;;;;;;;10.80;6.67;;;6.20;51.70;;;;;;5073444;28;20100;-69
2022/02/28 01:23:42;;;;;;;10.70;6.37;;;6.30;51.20;;;;;;5073353;28;20099;-68
2022/02/28 01:26:08;;;;;;;12.80;6.37;;;6.20;50.60;;;;;;5073645;28;20032;-68
2022/02/28 01:28:34;;;;;;;9.53;5.97;;;6.20;51.00;;;;;;5073393;28;20029;-68
2022/02/28 01:31:00;;;;;;;12.17;6.43;;;6.20;51.90;;;;;;5073437;28;20378;-68
2022/02/28 01:33:26;;;;;;;11.83;6.10;;;6.20;52.00;;;;;;5073053;28;20033;-69
2022/02/28 01:35:52;;;;;;;12.07;6.70;;;6.20;52.10;;;;;;5073286;28;20032;-69
2022/02/28 01:38:17;;;;;;;10.10;5.87;;;6.10;51.90;;;;;;5073277;28;20111;-68
2022/02/28 01:40:43;;;;;;;10.03;6.43;;;6.20;51.50;;;;;;5073093;28;20028;-68
2022/02/28 01:43:09;;;;;;;10.73;6.03;;;6.10;51.00;;;;;;5073143;28;20059;-69
2022/02/28 01:45:35;;;;;;;8.63;5.80;;;6.10;51.20;;;;;;5072998;28;20277;-69
2022/02/28 01:48:01;;;;;;;10.73;6.70;;;6.20;51.00;;;;;;5073041;28;20055;-68
2022/02/28 01:50:27;;;;;;;11.23;5.93;;;6.10;51.00;;;;;;5073126;28;20052;-68
2022/02/28 01:52:53;;;;;;;10.47;6.10;;;6.20;51.40;;;;;;5073058;28;20060;-68
2022/02/28 01:55:22;;;;;;;11.37;6.43;;;6.20;51.20;;;;;;5073455;28;20052;-68
2022/02/28 01:57:49;;;;;;;13.63;7.20;;;6.20;51.00;;;;;;5071649;28;20098;-68
2022/02/28 02:00:20;;;;;;;11.57;6.87;;;6.10;50.80;;;;;;5070326;28;20146;-69
2022/02/28 02:02:46;;;;;;;10.97;6.27;;;6.10;51.80;;;;;;5070102;28;20496;-68
2022/02/28 02:05:12;;;;;;;10.63;5.90;;;6.00;52.30;;;;;;5071634;28;20023;-68
2022/02/28 02:07:37;;;;;;;11.03;7.03;;;6.00;52.30;;;;;;5072822;28;20105;-68
2022/02/28 02:10:06;;;;;;;10.70;5.80;;;6.00;52.00;;;;;;5072889;28;20017;-68
2022/02/28 02:12:32;;;;;;;10.87;6.27;;;5.90;52.20;;;;;;5072456;28;20037;-68
2022/02/28 02:14:58;;;;;;;12.97;6.27;;;5.90;52.50;;;;;;5072813;28;20020;-69
2022/02/28 02:17:23;;;;;;;11.57;6.30;;;5.90;52.40;;;;;;5074691;28;20035;-68
2022/02/28 02:19:53;;;;;;;11.87;6.77;;;5.90;52.40;;;;;;5076914;28;20409;-68
2022/02/28 02:22:22;;;;;;;10.77;6.30;;;5.80;53.00;;;;;;5076587;28;20366;-68
2022/02/28 02:24:48;;;;;;;10.33;6.77;;;5.80;53.20;;;;;;5076950;28;20107;-68
2022/02/28 02:27:14;;;;;;;11.63;6.60;;;5.70;52.80;;;;;;5076901;28;20366;-68
2022/02/28 02:29:40;;;;;;;11.57;5.83;;;5.60;52.50;;;;;;5076628;28;20043;-69
2022/02/28 02:32:07;;;;;;;10.43;6.33;;;5.60;52.30;;;;;;5076749;28;20025;-68
2022/02/28 02:34:33;;;;;;;9.80;5.87;;;5.60;52.80;;;;;;5076402;28;20063;-69
2022/02/28 02:36:59;;;;;;;13.53;6.83;;;5.60;52.20;;;;;;5076348;28;20029;-68
2022/02/28 02:39:24;;;;;;;13.80;6.60;;;5.60;51.80;;;;;;5076429;28;20035;-68
2022/02/28 02:41:50;;;;;;;12.07;6.40;;;5.60;51.50;;;;;;5076484;28;20027;-68
2022/02/28 02:44:16;;;;;;;12.97;6.70;;;5.60;51.60;;;;;;5076047;28;20024;-68
2022/02/28 02:46:46;;;;;;;12.67;6.80;;;5.60;52.20;;;;;;5076124;28;20025;-69
2022/02/28 02:49:14;;;;;;;10.57;6.53;;;5.50;51.10;;;;;;5076414;28;20089;-68
2022/02/28 02:51:43;;;;;;;13.03;7.20;;;5.60;51.40;;;;;;5075984;28;20536;-70
2022/02/28 02:54:09;;;;;;;11.43;6.80;;;5.50;51.60;;;;;;5076054;28;20074;-68
2022/02/28 02:56:36;;;;;;;11.43;6.73;;;5.50;52.30;;;;;;5076298;28;20024;-68
2022/02/28 02:59:02;;;;;;;9.97;6.10;;;5.50;52.70;;;;;;5075618;28;20028;-68
2022/02/28 03:01:28;;;;;;;11.53;6.40;;;5.50;52.40;;;;;;5076230;28;20027;-80
2022/02/28 03:03:54;;;;;;;10.87;6.37;;;5.50;52.40;;;;;;5076267;28;20381;-68
2022/02/28 03:06:20;;;;;;;12.13;6.43;;;5.40;52.00;;;;;;5075987;28;20021;-68
2022/02/28 03:08:45;;;;;;;11.93;6.43;;;5.40;53.00;;;;;;5075933;28;20025;-68
2022/02/28 03:11:11;;;;;;;13.60;6.83;;;5.50;53.50;;;;;;5076110;28;20162;-68
2022/02/28 03:13:37;;;;;;;10.77;6.73;;;5.40;54.00;;;;;;5075977;28;20025;-68
2022/02/28 03:16:03;;;;;;;9.33;6.37;;;5.40;54.60;;;;;;5075862;28;20017;-68
2022/02/28 03:18:29;;;;;;;9.60;6.37;;;5.30;55.10;;;;;;5075921;28;20025;-68
2022/02/28 03:20:54;;;;;;;13.17;6.70;;;5.20;55.40;;;;;;5075359;28;20381;-69
2022/02/28 03:23:20;;;;;;;10.83;6.93;;;5.20;54.70;;;;;;5075364;28;20512;-69
2022/02/28 03:25:46;;;;;;;15.20;6.30;;;5.10;54.40;;;;;;5075781;28;20100;-69
2022/02/28 03:28:12;;;;;;;11.47;7.03;;;5.10;54.90;;;;;;5075685;28;20025;-68
2022/02/28 03:30:37;;;;;;;12.53;7.93;;;5.00;55.60;;;;;;5075759;28;20093;-68
2022/02/28 03:33:03;;;;;;;12.33;7.50;;;4.90;55.50;;;;;;5075466;28;20029;-69
2022/02/28 03:35:30;;;;;;;14.63;7.53;;;4.90;56.10;;;;;;5075147;28;20060;-68
2022/02/28 03:37:56;;;;;;;13.13;7.77;;;4.90;56.10;;;;;;5075208;28;20348;-69
2022/02/28 03:40:22;;;;;;;15.27;7.73;;;4.80;56.40;;;;;;5075224;28;20029;-69
2022/02/28 03:42:47;;;;;;;13.37;7.20;;;4.80;57.00;;;;;;5075583;28;20473;-69
2022/02/28 03:45:13;;;;;;;11.43;6.23;;;4.80;56.50;;;;;;5075326;28;20575;-80
2022/02/28 03:47:39;;;;;;;13.27;6.50;;;4.70;55.90;;;;;;5075410;28;20020;-68
2022/02/28 03:50:05;;;;;;;12.73;7.00;;;4.70;56.60;;;;;;5075348;28;20036;-70
2022/02/28 03:52:30;;;;;;;13.80;7.50;;;4.70;56.50;;;;;;5074765;28;20032;-68
2022/02/28 03:54:56;;;;;;;9.43;6.03;;;4.70;56.80;;;;;;5075317;28;20020;-68
2022/02/28 03:57:22;;;;;;;13.90;6.70;;;4.60;56.80;;;;;;5074804;28;20393;-69
2022/02/28 03:59:48;;;;;;;11.43;7.00;;;4.60;57.50;;;;;;5075372;28;20107;-68
2022/02/28 04:02:13;;;;;;;10.73;6.63;;;4.60;57.10;;;;;;5075024;28;20029;-69
2022/02/28 04:04:39;;;;;;;11.77;6.87;;;4.60;56.90;;;;;;5074813;28;20060;-68
2022/02/28 04:07:05;;;;;;;9.33;6.33;;;4.60;57.00;;;;;;5074699;28;20028;-68
2022/02/28 04:09:34;;;;;;;11.33;6.33;;;4.60;56.90;;;;;;5074981;28;20064;-68
2022/02/28 04:12:02;;;;;;;10.17;6.80;;;4.50;57.20;;;;;;5074641;28;20025;-68
2022/02/28 04:14:28;;;;;;;13.30;7.10;;;4.40;57.80;;;;;;5074838;28;20029;-68
2022/02/28 04:16:53;;;;;;;14.07;7.17;;;4.20;57.80;;;;;;5074699;28;20024;-68
2022/02/28 04:19:19;;;;;;;11.67;6.33;;;4.10;58.50;;;;;;5074914;28;20028;-69
2022/02/28 04:21:45;;;;;;;11.17;6.20;;;4.10;59.40;;;;;;5074604;28;20028;-69
2022/02/28 04:24:10;;;;;;;10.17;6.27;;;4.10;59.60;;;;;;5074589;28;20112;-68
2022/02/28 04:26:36;;;;;;;12.43;6.47;;;4.10;59.60;;;;;;5074454;28;20497;-69
2022/02/28 04:29:03;;;;;;;9.97;5.83;;;4.00;60.60;;;;;;5074315;28;20024;-68
2022/02/28 04:31:29;;;;;;;9.50;5.97;;;4.10;60.30;;;;;;5074319;28;20119;-79
2022/02/28 04:33:54;;;;;;;10.30;6.50;;;4.00;59.90;;;;;;5074250;28;20124;-69
2022/02/28 04:36:20;;;;;;;11.37;6.17;;;4.00;60.20;;;;;;5074183;28;20032;-68
2022/02/28 04:38:46;;;;;;;13.30;7.37;;;4.00;60.90;;;;;;5074308;28;20036;-79
2022/02/28 04:41:11;;;;;;;11.27;6.17;;;4.00;60.50;;;;;;5073678;28;20029;-69
2022/02/28 04:43:37;;;;;;;9.90;5.97;;;4.10;59.80;;;;;;5073897;28;20107;-79
2022/02/28 04:46:03;;;;;;;12.13;6.07;;;4.10;59.30;;;;;;5074332;28;20024;-79
2022/02/28 04:48:28;;;;;;;11.50;6.17;;;4.10;59.30;;;;;;5073957;28;20059;-69
2022/02/28 04:50:55;;;;;;;11.03;6.27;;;4.10;58.70;;;;;;5073864;28;20477;-79
2022/02/28 04:53:24;;;;;;;10.10;5.60;;;4.10;58.80;;;;;;5073940;28;20109;-69
2022/02/28 04:55:51;;;;;;;9.43;6.07;;;4.10;58.40;;;;;;5073901;28;20029;-70
2022/02/28 04:58:17;;;;;;;10.33;5.67;;;4.20;58.10;;;;;;5073630;28;20032;-71
2022/02/28 05:00:43;;;;;;;9.80;5.87;;;4.10;58.10;;;;;;5073837;28;20024;-70
2022/02/28 05:03:09;;;;;;;11.23;6.43;;;4.10;57.90;;;;;;5073731;28;20116;-68
2022/02/28 05:05:35;;;;;;;11.20;5.40;;;4.20;57.90;;;;;;5073659;28;20056;-68
2022/02/28 05:08:00;;;;;;;11.50;6.47;;;4.20;57.70;;;;;;5073767;28;20511;-81
2022/02/28 05:10:26;;;;;;;10.97;6.30;;;4.10;57.20;;;;;;5073526;28;20099;-69
2022/02/28 05:12:52;;;;;;;15.00;6.37;;;4.10;57.40;;;;;;5074195;28;20025;-69
2022/02/28 05:15:18;;;;;;;14.30;6.70;;;4.10;57.50;;;;;;5073478;28;20052;-69
2022/02/28 05:17:44;;;;;;;12.23;6.87;;;4.00;57.70;;;;;;5073456;28;20040;-69
2022/02/28 05:20:10;;;;;;;13.07;7.50;;;4.00;57.70;;;;;;5073684;28;20024;-69
2022/02/28 05:22:36;;;;;;;13.70;7.40;;;4.00;57.70;;;;;;5073452;28;20028;-69
2022/02/28 05:25:02;;;;;;;14.17;7.30;;;4.00;57.70;;;;;;5073164;28;20025;-69
2022/02/28 05:27:43;;;;;;;19.53;7.33;;;3.90;57.60;;;;;;5073376;28;20020;-69
2022/02/28 05:30:10;;;;;;;13.73;6.80;;;3.90;57.80;;;;;;5073414;28;20025;-69
2022/02/28 05:32:37;;;;;;;19.27;7.17;;;3.80;57.80;;;;;;5073332;28;20020;-69
2022/02/28 05:35:04;;;;;;;16.07;8.00;;;3.80;58.00;;;;;;5073065;28;20044;-70
2022/02/28 05:37:30;;;;;;;14.63;8.13;;;3.70;58.30;;;;;;5073394;28;20029;-69
2022/02/28 05:39:55;;;;;;;16.97;8.20;;;3.80;58.50;;;;;;5073112;28;20025;-69
2022/02/28 05:42:21;;;;;;;20.23;8.43;;;3.70;58.30;;;;;;5073414;28;20032;-70
2022/02/28 05:44:47;;;;;;;22.37;8.67;;;3.70;58.40;;;;;;5073320;28;20036;-76
2022/02/28 05:47:12;;;;;;;14.90;8.30;;;3.80;58.40;;;;;;5073221;28;20047;-69
2022/02/28 05:49:38;;;;;;;14.37;8.70;;;3.80;58.50;;;;;;5072772;28;20029;-70
2022/02/28 05:52:04;;;;;;;16.20;9.20;;;3.70;58.80;;;;;;5072315;28;20475;-69
2022/02/28 05:54:31;;;;;;;18.53;9.63;;;3.60;59.00;;;;;;5073172;28;20021;-69
2022/02/28 05:56:57;;;;;;;21.90;10.70;;;3.60;58.90;;;;;;5073013;28;20033;-79
2022/02/28 05:59:22;;;;;;;21.10;11.73;;;3.60;58.90;;;;;;5072872;28;20029;-69
2022/02/28 06:01:48;;;;;;;18.83;10.13;;;3.70;59.00;;;;;;5072734;28;20035;-69
2022/02/28 06:04:14;;;;;;;18.13;9.27;;;3.70;59.00;;;;;;5072822;28;20032;-70
2022/02/28 06:06:40;;;;;;;17.13;9.57;;;3.70;58.80;;;;;;5072878;28;20077;-69
2022/02/28 06:09:06;;;;;;;15.23;9.67;;;3.70;58.70;;;;;;5073074;28;20021;-70
2022/02/28 06:11:31;;;;;;;16.53;9.33;;;3.60;59.20;;;;;;5072521;28;20373;-69
2022/02/28 06:13:58;;;;;;;15.40;8.40;;;3.50;59.80;;;;;;5072684;28;20024;-69
2022/02/28 06:16:24;;;;;;;16.93;8.63;;;3.50;59.80;;;;;;5072916;28;20029;-70
2022/02/28 06:18:50;;;;;;;18.50;8.60;;;3.50;59.50;;;;;;5072837;28;20031;-69
2022/02/28 06:21:15;;;;;;;15.40;8.40;;;3.50;59.50;;;;;;5072738;28;20035;-80
2022/02/28 06:23:42;;;;;;;18.27;9.23;;;3.50;59.50;;;;;;5072931;28;20106;-70
2022/02/28 06:26:09;;;;;;;19.13;9.30;;;3.50;60.30;;;;;;5072614;28;20488;-69
2022/02/28 06:28:35;;;;;;;20.57;8.80;;;3.50;60.70;;;;;;5072870;28;20374;-79
2022/02/28 06:31:03;;;;;;;20.70;9.97;;;3.50;60.80;;;;;;5072442;28;20572;-69
2022/02/28 06:33:29;;;;;;;16.17;7.97;;;3.50;60.30;;;;;;5072808;28;20056;-69
2022/02/28 06:35:55;;;;;;;15.70;7.80;;;3.50;61.10;;;;;;5074209;28;20074;-68
2022/02/28 06:38:22;;;;;;;31.47;7.53;;;3.60;61.00;;;;;;5072669;28;20044;-69
2022/02/28 06:40:49;;;;;;;34.33;9.53;;;3.60;61.60;;;;;;5072478;28;20025;-70
2022/02/28 06:43:16;;;;;;;17.50;9.53;;;3.70;61.10;;;;;;5072357;28;20108;-78
2022/02/28 06:45:43;;;;;;;19.30;9.07;;;3.70;61.20;;;;;;5072844;28;20025;-70
2022/02/28 06:48:09;;;;;;;35.07;10.47;;;3.80;60.80;;;;;;5072720;28;20397;-69
2022/02/28 06:50:35;;;;;;;21.70;8.60;;;3.80;61.70;;;;;;5072327;28;20024;-70
2022/02/28 06:53:00;;;;;;;18.40;9.00;;;3.80;61.90;;;;;;5072249;28;20449;-70
2022/02/28 06:55:26;;;;;;;27.73;8.93;;;3.90;61.50;;;;;;5072489;28;20028;-79
2022/02/28 06:57:52;;;;;;;17.93;8.10;;;3.90;61.30;;;;;;5072401;28;20115;-79
2022/02/28 07:00:18;;;;;;;15.43;7.83;;;4.00;60.90;;;;;;5072499;28;20025;-69
2022/02/28 07:02:44;;;;;;;21.03;8.20;;;4.00;60.70;;;;;;5073329;28;20043;-71
2022/02/28 07:05:10;;;;;;;17.17;8.07;;;4.10;60.60;;;;;;5076293;28;20021;-70
2022/02/28 07:07:39;;;;;;;14.23;7.33;;;4.20;60.00;;;;;;5076397;28;20020;-70
2022/02/28 07:10:06;;;;;;;21.93;8.57;;;4.30;59.60;;;;;;5076009;28;20021;-70
2022/02/28 07:12:32;;;;;;;17.83;7.67;;;4.40;59.00;;;;;;5075817;28;20035;-70
2022/02/28 07:14:58;;;;;;;14.57;7.70;;;4.50;58.60;;;;;;5076186;28;20017;-70
2022/02/28 07:17:25;;;;;;;16.87;7.87;;;4.60;58.40;;;;;;5075904;28;20037;-70
2022/02/28 07:19:51;;;;;;;15.10;8.57;;;4.60;58.40;;;;;;5075939;28;20039;-77
2022/02/28 07:22:17;;;;;;;17.23;7.60;;;4.70;57.90;;;;;;5075933;28;20103;-70
2022/02/28 07:24:43;;;;;;;16.97;8.17;;;4.80;57.80;;;;;;5075991;28;20078;-70
2022/02/28 07:27:08;;;;;;;17.37;8.00;;;4.90;57.60;;;;;;5072866;28;20021;-70
2022/02/28 07:29:34;;;;;;;19.07;8.33;;;4.90;57.40;;;;;;5072906;28;20036;-70
2022/02/28 07:32:02;;;;;;;15.27;8.00;;;5.00;57.30;;;;;;5073205;28;20052;-69
2022/02/28 07:34:28;;;;;;;14.47;8.10;;;5.00;57.20;;;;;;5075199;28;20037;-70
2022/02/28 07:36:53;;;;;;;22.57;7.47;;;5.10;57.00;;;;;;5075516;28;20023;-76
2022/02/28 07:39:20;;;;;;;13.43;7.30;;;5.20;56.70;;;;;;5075389;28;20048;-68
2022/02/28 07:41:46;;;;;;;14.77;7.73;;;5.30;56.10;;;;;;5075110;28;20032;-66
2022/02/28 07:44:15;;;;;;;13.17;7.47;;;5.40;55.80;;;;;;5075321;28;20126;-77
2022/02/28 07:46:42;;;;;;;16.67;7.90;;;5.50;55.60;;;;;;5075888;28;20032;-67
2022/02/28 07:49:08;;;;;;;20.43;10.60;;;5.60;55.70;;;;;;5075018;28;20032;-65
2022/02/28 07:51:34;;;;;;;19.73;10.00;;;5.70;55.50;;;;;;5074393;28;20032;-65
2022/02/28 07:53:59;;;;;;;14.77;8.63;;;5.80;55.20;;;;;;5072563;28;20473;-65
2022/02/28 07:56:25;;;;;;;14.00;8.63;;;5.90;54.30;;;;;;5072813;28;20035;-64
2022/02/28 07:58:51;;;;;;;19.47;8.27;;;6.00;53.70;;;;;;5075095;28;20037;-64
2022/02/28 08:01:17;;;;;;;13.33;7.83;;;6.10;53.50;;;;;;5075052;28;20461;-69
2022/02/28 08:03:43;;;;;;;13.43;8.20;;;6.20;53.40;;;;;;5074924;28;20033;-72
2022/02/28 08:06:09;;;;;;;14.50;8.00;;;6.30;52.90;;;;;;5074739;28;20025;-64
2022/02/28 08:08:35;;;;;;;16.57;7.70;;;6.30;53.00;;;;;;5074864;28;20445;-73
2022/02/28 08:11:02;;;;;;;17.07;8.50;;;6.40;52.80;;;;;;5074978;28;20031;-64
2022/02/28 08:13:28;;;;;;;14.67;7.77;;;6.50;53.10;;;;;;5074822;28;20075;-76
2022/02/28 08:15:55;;;;;;;14.10;8.00;;;6.60;53.00;;;;;;5073995;28;20033;-73
2022/02/28 08:18:21;;;;;;;14.97;8.00;;;6.70;52.50;;;;;;5074812;28;20210;-64
2022/02/28 08:20:47;;;;;;;14.17;8.13;;;6.70;51.10;;;;;;5074998;28;20104;-64
2022/02/28 08:23:13;;;;;;;16.20;8.20;;;6.80;51.00;;;;;;5074673;28;20028;-65
2022/02/28 08:25:42;;;;;;;14.33;8.27;;;6.90;49.50;;;;;;5062705;28;20104;-64
2022/02/28 08:28:08;;;;;;;16.00;8.67;;;7.00;49.50;;;;;;5054566;28;20021;-64
2022/02/28 08:30:33;;;;;;;14.20;7.83;;;7.10;49.50;;;;;;5054537;28;20017;-65
2022/02/28 08:32:59;;;;;;;25.57;8.03;;;7.10;49.10;;;;;;5054526;28;20079;-65
2022/02/28 08:35:25;;;;;;;16.23;9.03;;;7.20;48.20;;;;;;5054237;28;20052;-64
2022/02/28 08:37:50;;;;;;;15.87;8.43;;;7.20;48.90;;;;;;5054547;28;20388;-65
2022/02/28 08:40:16;;;;;;;11.43;8.30;;;7.20;48.50;;;;;;5054463;28;20025;-64
2022/02/28 08:42:42;;;;;;;17.93;8.40;;;7.30;48.00;;;;;;5054361;28;20428;-69
2022/02/28 08:45:08;;;;;;;15.80;7.77;;;7.30;48.20;;;;;;5054121;28;20100;-69
2022/02/28 08:47:34;;;;;;;14.93;8.27;;;7.40;48.50;;;;;;5054186;28;20025;-68
2022/02/28 08:50:01;;;;;;;12.33;7.50;;;7.50;48.20;;;;;;5054099;28;20381;-65
2022/02/28 08:52:28;;;;;;;13.33;7.57;;;7.50;46.90;;;;;;5053921;28;20036;-69
2022/02/28 08:54:53;;;;;;;15.87;7.47;;;7.50;47.10;;;;;;5053972;28;20466;-70
2022/02/28 08:57:21;;;;;;;15.03;6.97;;;7.60;47.20;;;;;;5053809;28;20032;-69
2022/02/28 08:59:47;;;;;;;14.10;7.70;;;7.60;47.40;;;;;;5053222;28;20504;-72
2022/02/28 09:02:12;;;;;;;18.23;8.37;;;7.60;47.00;;;;;;5052221;28;20473;-69
2022/02/28 09:04:38;;;;;;;13.23;7.37;;;7.70;47.30;;;;;;5052171;28;20032;-66
2022/02/28 09:07:04;;;;;;;12.03;7.87;;;7.70;47.60;;;;;;5051972;28;20052;-66
2022/02/28 09:09:30;;;;;;;15.47;7.83;;;7.80;47.70;;;;;;5052460;28;20526;-66
2022/02/28 09:11:55;;;;;;;12.43;7.57;;;7.90;47.40;;;;;;5052607;28;20358;-66
2022/02/28 09:14:21;;;;;;;13.43;7.80;;;7.90;46.50;;;;;;5052180;28;20086;-66
2022/02/28 09:16:47;;;;;;;10.27;7.07;;;7.90;46.50;;;;;;5052302;28;20112;-66
2022/02/28 09:19:13;;;;;;;13.47;7.37;;;8.00;45.90;;;;;;5051941;28;20064;-66
2022/02/28 09:21:41;;;;;;;12.47;7.13;;;8.10;46.50;;;;;;5052061;28;20116;-66
2022/02/28 09:24:07;;;;;;;16.33;7.43;;;8.10;46.20;;;;;;5049842;28;20032;-66
2022/02/28 09:26:33;;;;;;;11.93;7.20;;;8.20;46.10;;;;;;5051496;28;20024;-66
2022/02/28 09:28:59;;;;;;;16.93;7.60;;;8.20;45.80;;;;;;5049638;28;20127;-71
2022/02/28 09:31:25;;;;;;;18.30;6.60;;;8.30;46.00;;;;;;5052377;28;20029;-68
2022/02/28 09:33:50;;;;;;;15.40;8.03;;;8.30;46.10;;;;;;5052202;28;20052;-68
2022/02/28 09:36:16;;;;;;;13.20;7.33;;;8.40;46.00;;;;;;5052236;28;20032;-70
2022/02/28 09:38:42;;;;;;;11.70;7.37;;;8.50;44.20;;;;;;5052088;28;20080;-71
2022/02/28 09:41:10;;;;;;;10.67;6.70;;;8.50;44.30;;;;;;5052240;28;20029;-65
2022/02/28 09:43:36;;;;;;;13.87;7.30;;;8.50;44.70;;;;;;5051969;28;20044;-65
2022/02/28 09:46:04;;;;;;;9.87;6.17;;;8.60;44.60;;;;;;5052131;28;20029;-66
2022/02/28 09:48:31;;;;;;;13.97;6.63;;;8.60;45.00;;;;;;5052229;28;20022;-67
2022/02/28 09:50:57;;;;;;;15.13;7.43;;;8.60;44.50;;;;;;5051965;28;20021;-66
2022/02/28 09:53:23;;;;;;;11.80;7.80;;;8.60;44.80;;;;;;5052429;28;20037;-65
2022/02/28 09:55:49;;;;;;;10.00;6.57;;;8.60;44.10;;;;;;5052057;28;20021;-66
2022/02/28 09:58:14;;;;;;;11.87;7.03;;;8.60;43.80;;;;;;5051438;28;20044;-65
2022/02/28 10:00:46;;;;;;;12.93;6.70;;;8.50;43.30;;;;;;5048759;28;20021;-66
2022/02/28 10:03:13;;;;;;;12.98;6.55;;;8.50;44.00;;;;;;5051638;28;20508;-65
2022/02/28 10:05:38;;;;;;;16.87;6.77;;;8.50;43.80;;;;;;5051975;28;20021;-66
2022/02/28 10:08:07;;;;;;;12.67;7.07;;;8.50;43.70;;;;;;5051897;28;20508;-69
2022/02/28 10:10:37;;;;;;;10.33;6.87;;;8.50;44.00;;;;;;5052804;28;20489;-66
2022/02/28 10:13:03;;;;;;;11.70;6.53;;;8.50;43.70;;;;;;5053047;28;20132;-66
2022/02/28 10:15:29;;;;;;;11.60;7.60;;;8.50;43.90;;;;;;5051942;28;20078;-65
2022/02/28 10:18:00;;;;;;;12.93;7.27;;;8.50;44.00;;;;;;5052744;28;20413;-65
2022/02/28 10:20:36;;;;;;;13.97;6.67;;;8.50;44.10;;;;;;5051969;28;20033;-65
2022/02/28 10:23:09;;;;;;;13.67;7.20;;;8.50;43.80;;;;;;5051877;28;20039;-65
2022/02/28 10:25:36;;;;;;;9.90;6.60;;;8.60;43.80;;;;;;5053168;28;20052;-65
2022/02/28 10:28:29;;;;;;;10.70;6.50;;;8.60;44.00;;;;;;5052307;28;20095;-65
2022/02/28 10:31:05;;;;;;;13.73;6.40;;;8.70;43.90;;;;;;5050582;28;20440;-75
2022/02/28 10:33:37;;;;;;;11.73;6.87;;;8.80;44.30;;;;;;5052089;28;20036;-65
2022/02/28 10:36:24;;;;;;;10.43;7.18;;;8.90;44.00;;;;;;5052339;28;20107;-74
2022/02/28 10:38:51;;;;;;;10.37;6.10;;;9.10;44.10;;;;;;5054904;28;20111;-66
2022/02/28 10:41:21;;;;;;;15.13;6.77;;;9.10;42.60;;;;;;5056552;28;20441;-75
2022/02/28 10:43:48;;;;;;;11.93;6.63;;;9.20;42.90;;;;;;5055770;28;20029;-74
2022/02/28 10:46:26;;;;;;;11.33;5.97;;;9.30;42.90;;;;;;5056178;28;20470;-64
2022/02/28 10:49:16;;;;;;;9.87;5.97;;;9.40;42.30;;;;;;5056521;28;20021;-66
2022/02/28 10:51:55;;;;;;;8.90;5.50;;;9.50;42.30;;;;;;5056441;28;20025;-65
2022/02/28 10:54:28;;;;;;;10.97;6.17;;;9.50;42.30;;;;;;5056313;28;20021;-76
2022/02/28 10:57:04;;;;;;;13.60;6.23;;;9.70;43.00;;;;;;5056317;28;20028;-64
2022/02/28 10:59:38;;;;;;;10.93;5.90;;;9.80;43.00;;;;;;5056308;28;20200;-65
2022/02/28 11:02:04;;;;;;;12.63;5.80;;;9.90;41.70;;;;;;5056243;28;20100;-75
2022/02/28 11:04:41;;;;;;;10.27;6.20;;;9.90;40.90;;;;;;5056195;28;20122;-74
2022/02/28 11:07:11;;;;;;;12.00;5.77;;;10.00;41.40;;;;;;5056117;28;20063;-75
2022/02/28 11:09:46;;;;;;;8.93;5.47;;;10.10;41.40;;;;;;5056129;28;20033;-65
2022/02/28 11:12:30;;;;;;;11.23;6.07;;;10.20;40.80;;;;;;5055940;28;20017;-65
2022/02/28 11:15:00;;;;;;;10.23;6.33;;;10.20;40.70;;;;;;5056155;28;20381;-65
2022/02/28 11:17:34;;;;;;;11.13;6.17;;;10.20;40.40;;;;;;5055865;28;20037;-65
2022/02/28 11:20:08;;;;;;;10.43;5.90;;;10.30;40.80;;;;;;5055462;28;20486;-65
2022/02/28 11:22:35;;;;;;;12.20;6.00;;;10.30;41.00;;;;;;5055637;28;20033;-65
2022/02/28 11:25:01;;;;;;;8.93;6.00;;;10.40;40.20;;;;;;5055561;28;20489;-73
2022/02/28 11:27:29;;;;;;;7.90;5.67;;;10.50;40.10;;;;;;5056001;28;20033;-74
2022/02/28 11:30:11;;;;;;;9.70;5.30;;;10.50;39.70;;;;;;5055679;28;20040;-74
2022/02/28 11:32:38;;;;;;;10.57;5.63;;;10.40;39.30;;;;;;5055329;28;20028;-75
2022/02/28 11:35:43;;;;;;;8.40;5.23;;;10.30;39.60;;;;;;5055059;28;20580;-73
2022/02/28 11:38:17;;;;;;;10.70;5.67;;;10.20;39.70;;;;;;5055512;28;20041;-76
2022/02/28 11:40:47;;;;;;;9.70;5.40;;;10.20;39.90;;;;;;5055389;28;20397;-64
2022/02/28 11:43:24;;;;;;;7.90;5.63;;;10.20;40.30;;;;;;5053446;28;20389;-75
2022/02/28 11:45:52;;;;;;;10.50;6.43;;;10.20;40.20;;;;;;5054224;28;20087;-74
2022/02/28 11:48:55;;;;;;;10.30;5.70;;;10.10;40.30;;;;;;5054186;28;20371;-75
2022/02/28 11:51:32;;;;;;;8.13;4.77;;;10.10;40.40;;;;;;5054420;28;20021;-65
2022/02/28 11:54:02;;;;;;;8.73;6.00;;;10.10;40.50;;;;;;5055442;28;20267;-64
2022/02/28 11:56:36;;;;;;;11.20;5.70;;;10.10;40.40;;;;;;5054677;28;20028;-65
2022/02/28 11:59:20;;;;;;;10.63;5.80;;;10.20;40.20;;;;;;5054329;28;20073;-65
2022/02/28 12:02:01;;;;;;;8.87;5.43;;;10.30;40.20;;;;;;5055346;28;20029;-65
2022/02/28 12:04:45;;;;;;;12.03;6.17;;;10.50;40.20;;;;;;5054898;28;20060;-65
2022/02/28 12:07:39;;;;;;;9.07;5.70;;;10.70;39.80;;;;;;5055097;28;20410;-64
2022/02/28 12:10:13;;;;;;;9.53;5.60;;;10.80;39.00;;;;;;5055263;28;20154;-64
2022/02/28 12:12:55;;;;;;;9.60;5.53;;;11.00;39.80;;;;;;5054850;28;20432;-65
2022/02/28 12:15:22;;;;;;;11.32;5.80;;;11.20;38.60;;;;;;5054872;28;20025;-65
2022/02/28 12:17:47;;;;;;;12.30;6.27;;;11.30;38.90;;;;;;5054680;28;20037;-67
2022/02/28 12:20:13;;;;;;;9.52;5.35;;;;;;;;;;5054432;28;20027;-68
2022/02/28 12:22:51;;;;;;;10.63;5.90;;;;;;;;;;5054507;28;20096;-65
2022/02/28 12:25:33;;;;;;;8.45;5.20;;;;;;;;;;5054499;28;20488;-74
2022/02/28 12:28:28;;;;;;;10.43;5.87;;;;;;;;;;5054858;28;20028;-76
2022/02/28 12:30:59;;;;;;;8.48;5.28;;;;;;;;;;5045753;28;20033;-66
2022/02/28 12:33:35;;;;;;;10.95;5.90;;;;;;;;;;5054266;28;20082;-75
2022/02/28 12:36:04;;;;;;;11.38;5.72;;;;;;;;;;5054658;28;20033;-66
2022/02/28 12:38:31;;;;;;;9.90;4.90;;;;;;;;;;5054343;28;20432;-67
2022/02/28 12:40:58;;;;;;;11.03;5.10;;;;;;;;;;5054368;28;20020;-66
2022/02/28 12:43:25;;;;;;;9.55;5.35;;;;;;;;;;5054175;28;20044;-67
2022/02/28 12:45:53;;;;;;;7.75;5.38;;;;;;;;;;5054277;28;20031;-67
2022/02/28 12:48:20;;;;;;;8.52;5.50;;;;;;;;;;5054083;28;20014;-74
2022/02/28 12:50:49;;;;;;;7.40;5.05;;;;;;;;;;5054347;28;20386;-70
2022/02/28 12:53:16;;;;;;;8.02;5.60;;;;;;;;;;5054139;28;20469;-68